Time;durP1;ratioP1;P1;durP2;ratioP2;P2;SDS_P1;SDS_P2;PMS_P1;PMS_P2;Temp;Humidity;BMP_temperature;BMP_pressure;BME280_temperature;BME280_humidity;BME280_pressure;Samples;Min_cycle;Max_cycle;Signal;HPM_P1;HPM_P2
2023/04/27 00:00:53;;;;;;;6.87;3.83;;;3.40;99.90;;;;;;4221529;28;20507;-76
2023/04/27 00:02:55;;;;;;;9.03;3.60;;;3.30;99.90;;;;;;4213581;28;21002;-77
2023/04/27 00:04:57;;;;;;;9.73;4.03;;;3.30;99.90;;;;;;4213322;28;20459;-77
2023/04/27 00:06:59;;;;;;;6.90;4.33;;;3.30;99.90;;;;;;4206379;28;20549;-78
2023/04/27 00:09:01;;;;;;;6.53;3.97;;;3.30;99.90;;;;;;4211213;28;20488;-77
2023/04/27 00:11:03;;;;;;;7.47;3.60;;;3.30;99.90;;;;;;4211353;28;20984;-78
2023/04/27 00:13:06;;;;;;;5.97;3.47;;;3.30;99.90;;;;;;4204612;28;20465;-77
2023/04/27 00:15:10;;;;;;;7.77;3.70;;;3.40;99.90;;;;;;4211946;28;20497;-77
2023/04/27 00:17:12;;;;;;;6.27;3.60;;;3.20;99.90;;;;;;4213051;28;20948;-77
2023/04/27 00:19:15;;;;;;;7.63;3.97;;;3.10;99.90;;;;;;4213470;28;20519;-77
2023/04/27 00:21:17;;;;;;;7.83;3.90;;;3.10;99.90;;;;;;4212865;28;20525;-78
2023/04/27 00:23:19;;;;;;;8.33;3.97;;;3.10;99.90;;;;;;4215264;28;20522;-77
2023/04/27 00:25:21;;;;;;;9.93;4.13;;;3.10;99.90;;;;;;4208696;28;20483;-77
2023/04/27 00:27:23;;;;;;;9.80;4.20;;;3.00;99.90;;;;;;4213219;28;20506;-77
2023/04/27 00:29:24;;;;;;;6.73;3.83;;;3.00;99.90;;;;;;4211467;28;20498;-77
2023/04/27 00:31:28;;;;;;;6.07;3.87;;;3.00;99.90;;;;;;4210836;28;20476;-76
2023/04/27 00:33:30;;;;;;;10.47;4.80;;;3.00;99.90;;;;;;4213889;28;20553;-76
2023/04/27 00:35:32;;;;;;;9.63;4.20;;;3.00;99.90;;;;;;4211283;28;20490;-77
2023/04/27 00:37:34;;;;;;;7.20;4.40;;;3.00;99.90;;;;;;4202881;28;20495;-77
2023/04/27 00:39:36;;;;;;;7.37;4.10;;;3.00;99.90;;;;;;4205885;28;20464;-76
2023/04/27 00:41:39;;;;;;;9.67;4.40;;;2.90;99.90;;;;;;4203722;28;20574;-76
2023/04/27 00:43:45;;;;;;;10.30;4.67;;;2.90;99.90;;;;;;4208432;28;21006;-76
2023/04/27 00:45:47;;;;;;;10.80;4.63;;;2.90;99.90;;;;;;4208160;28;20858;-78
2023/04/27 00:47:50;;;;;;;8.03;4.43;;;2.90;99.90;;;;;;4207017;28;20492;-78
2023/04/27 00:49:53;;;;;;;8.90;4.40;;;2.90;99.90;;;;;;4207487;28;20557;-78
2023/04/27 00:51:55;;;;;;;8.53;4.70;;;2.90;99.90;;;;;;4210231;28;20479;-78
2023/04/27 00:53:58;;;;;;;7.43;4.37;;;2.80;99.90;;;;;;4217462;28;20455;-79
2023/04/27 00:56:00;;;;;;;8.47;4.30;;;2.80;99.90;;;;;;4208235;28;20454;-79
2023/04/27 00:58:02;;;;;;;8.67;4.03;;;2.80;99.90;;;;;;4216664;28;20501;-78
2023/04/27 01:00:06;;;;;;;9.63;4.33;;;3.10;99.90;;;;;;4209091;28;20468;-79
2023/04/27 01:02:08;;;;;;;10.50;4.60;;;2.80;99.90;;;;;;4208336;28;20488;-79
2023/04/27 01:04:11;;;;;;;10.43;4.63;;;3.00;99.90;;;;;;4217388;28;20501;-79
2023/04/27 01:06:13;;;;;;;7.53;4.43;;;3.50;99.90;;;;;;4210895;28;20495;-79
2023/04/27 01:08:15;;;;;;;8.13;4.43;;;2.70;99.90;;;;;;4211865;28;22134;-79
2023/04/27 01:10:17;;;;;;;7.90;4.33;;;2.70;99.90;;;;;;4214144;28;20486;-79
2023/04/27 01:12:19;;;;;;;8.97;5.00;;;2.70;99.90;;;;;;4215397;28;20543;-78
2023/04/27 01:14:21;;;;;;;10.57;5.10;;;2.70;99.90;;;;;;4211555;28;20473;-78
2023/04/27 01:16:23;;;;;;;9.93;5.13;;;2.70;99.90;;;;;;4206837;28;20471;-79
2023/04/27 01:18:25;;;;;;;9.63;4.83;;;2.70;99.90;;;;;;4218245;28;20481;-78
2023/04/27 01:20:29;;;;;;;8.97;5.33;;;2.60;99.90;;;;;;4221654;28;20458;-79
2023/04/27 01:22:31;;;;;;;9.70;5.07;;;2.60;99.90;;;;;;4215767;28;20455;-78
2023/04/27 01:24:34;;;;;;;8.17;4.80;;;2.60;99.90;;;;;;4215391;28;20475;-80
2023/04/27 01:26:36;;;;;;;9.43;5.40;;;2.50;99.90;;;;;;4217266;28;20527;-79
2023/04/27 01:28:38;;;;;;;11.47;5.83;;;2.50;99.90;;;;;;4217935;28;20497;-79
2023/04/27 01:30:40;;;;;;;11.13;5.33;;;2.50;99.90;;;;;;4215286;28;20879;-78
2023/04/27 01:32:42;;;;;;;9.30;5.53;;;2.40;99.90;;;;;;4212478;28;20512;-79
2023/04/27 01:34:44;;;;;;;10.13;5.00;;;2.40;99.90;;;;;;4214770;28;20464;-78
2023/04/27 01:36:46;;;;;;;10.80;5.30;;;2.40;99.90;;;;;;4214063;28;20464;-78
2023/04/27 01:38:48;;;;;;;10.07;5.03;;;3.40;99.90;;;;;;4212719;28;20499;-79
2023/04/27 01:40:51;;;;;;;10.97;5.50;;;2.40;99.90;;;;;;4210948;28;21000;-78
2023/04/27 01:42:53;;;;;;;8.47;4.70;;;2.30;99.90;;;;;;4207080;28;20494;-79
2023/04/27 01:44:55;;;;;;;13.07;5.50;;;2.30;99.90;;;;;;4210569;28;20458;-79
2023/04/27 01:46:57;;;;;;;9.03;5.53;;;2.30;99.90;;;;;;4208161;28;20491;-80
2023/04/27 01:48:59;;;;;;;10.97;4.97;;;2.30;99.90;;;;;;4214134;28;20478;-80
2023/04/27 01:51:00;;;;;;;9.30;4.80;;;2.30;99.90;;;;;;4211344;28;20479;-78
2023/04/27 01:53:03;;;;;;;10.57;4.87;;;2.30;99.90;;;;;;4213086;28;20444;-78
2023/04/27 01:55:05;;;;;;;8.17;4.60;;;2.30;99.90;;;;;;4206524;28;20466;-78
2023/04/27 01:57:09;;;;;;;8.90;4.97;;;2.20;99.90;;;;;;4208305;28;20478;-79
2023/04/27 01:59:11;;;;;;;9.93;5.13;;;2.30;99.90;;;;;;4214167;28;20458;-79
2023/04/27 02:01:13;;;;;;;10.00;5.10;;;2.30;99.90;;;;;;4213648;28;20548;-79
2023/04/27 02:03:14;;;;;;;10.70;5.20;;;2.20;99.90;;;;;;4216705;28;20491;-79
2023/04/27 02:05:16;;;;;;;10.57;5.33;;;2.20;99.90;;;;;;4216100;28;20466;-78
2023/04/27 02:07:18;;;;;;;8.53;4.70;;;2.20;99.90;;;;;;4209384;28;20487;-79
2023/04/27 02:09:20;;;;;;;9.03;5.13;;;2.10;99.90;;;;;;4214020;28;20893;-80
2023/04/27 02:11:22;;;;;;;7.17;4.73;;;2.10;99.90;;;;;;4211620;28;20489;-78
2023/04/27 02:13:25;;;;;;;8.40;4.70;;;2.10;99.90;;;;;;4210298;28;20552;-79
2023/04/27 02:15:27;;;;;;;7.80;4.20;;;2.10;99.90;;;;;;4205908;28;20451;-80
2023/04/27 02:17:30;;;;;;;8.40;4.40;;;2.00;99.90;;;;;;4210525;28;20468;-80
2023/04/27 02:19:32;;;;;;;9.10;4.60;;;2.00;99.90;;;;;;4207186;28;20463;-79
2023/04/27 02:21:33;;;;;;;9.90;4.50;;;2.10;99.90;;;;;;4210100;28;20479;-80
2023/04/27 02:23:35;;;;;;;9.67;5.00;;;2.00;99.90;;;;;;4216171;28;20558;-80
2023/04/27 02:25:37;;;;;;;6.57;4.30;;;2.00;99.90;;;;;;4215140;28;20468;-79
2023/04/27 02:27:40;;;;;;;8.30;4.20;;;2.00;99.90;;;;;;4214218;28;20467;-79
2023/04/27 02:29:44;;;;;;;9.67;4.53;;;2.00;99.90;;;;;;4214592;28;20487;-79
2023/04/27 02:31:45;;;;;;;8.27;4.57;;;2.00;99.90;;;;;;4215293;28;20968;-79
2023/04/27 02:33:47;;;;;;;7.60;4.37;;;2.00;99.90;;;;;;4217122;28;20937;-79
2023/04/27 02:35:49;;;;;;;11.20;4.77;;;1.90;99.90;;;;;;4209575;28;20478;-78
2023/04/27 02:37:51;;;;;;;9.10;4.60;;;1.90;99.90;;;;;;4208621;28;20513;-78
2023/04/27 02:39:53;;;;;;;6.97;4.10;;;1.90;99.90;;;;;;4213612;28;20541;-77
2023/04/27 02:41:55;;;;;;;9.97;4.27;;;2.00;99.90;;;;;;4217274;28;20560;-78
2023/04/27 02:43:57;;;;;;;8.57;4.60;;;1.90;99.90;;;;;;4215615;28;20495;-79
2023/04/27 02:46:04;;;;;;;7.73;4.67;;;1.80;99.90;;;;;;4210137;28;20550;-78
2023/04/27 02:48:07;;;;;;;7.40;4.53;;;1.80;99.90;;;;;;4213260;28;20476;-79
2023/04/27 02:50:09;;;;;;;8.70;4.67;;;1.80;99.90;;;;;;4207028;28;20485;-79
2023/04/27 02:52:11;;;;;;;9.20;4.30;;;1.80;99.90;;;;;;4211969;28;20551;-79
2023/04/27 02:54:13;;;;;;;9.53;4.50;;;1.70;99.90;;;;;;4211761;28;20447;-79
2023/04/27 02:56:15;;;;;;;9.03;4.60;;;2.00;99.90;;;;;;4203646;28;21429;-79
2023/04/27 02:58:17;;;;;;;8.80;4.60;;;2.10;99.90;;;;;;4207635;28;20462;-78
2023/04/27 03:00:20;;;;;;;8.60;4.90;;;1.80;99.90;;;;;;4210813;28;20467;-78
2023/04/27 03:02:24;;;;;;;10.03;4.97;;;1.70;99.90;;;;;;4209684;28;20474;-79
2023/04/27 03:04:26;;;;;;;9.40;4.77;;;1.70;99.90;;;;;;4211138;28;20468;-79
2023/04/27 03:06:28;;;;;;;9.77;4.97;;;1.70;99.90;;;;;;4211661;28;20494;-80
2023/04/27 03:08:30;;;;;;;9.53;4.90;;;1.70;99.90;;;;;;4210861;28;20453;-78
2023/04/27 03:10:32;;;;;;;7.50;4.43;;;1.60;99.90;;;;;;4212892;28;20439;-79
2023/04/27 03:12:34;;;;;;;9.10;4.33;;;1.70;99.90;;;;;;4212334;28;20534;-80
2023/04/27 03:14:36;;;;;;;8.90;4.10;;;1.60;99.90;;;;;;4212362;28;20493;-79
2023/04/27 03:16:38;;;;;;;7.47;4.60;;;1.70;99.90;;;;;;4210355;28;20490;-78
2023/04/27 03:18:41;;;;;;;11.03;4.50;;;1.60;99.90;;;;;;4208197;28;20906;-79
2023/04/27 03:20:43;;;;;;;9.50;4.57;;;1.60;99.90;;;;;;4211851;28;20964;-78
2023/04/27 03:22:45;;;;;;;10.53;4.73;;;1.60;99.90;;;;;;4212299;28;20554;-80
2023/04/27 03:24:47;;;;;;;11.20;5.60;;;1.60;99.90;;;;;;4211871;28;20956;-80
2023/04/27 03:26:50;;;;;;;9.40;4.80;;;1.60;99.90;;;;;;4205815;28;20513;-77
2023/04/27 03:28:51;;;;;;;10.93;4.73;;;1.60;99.90;;;;;;4207143;28;20465;-79
2023/04/27 03:30:53;;;;;;;12.17;5.07;;;1.60;99.90;;;;;;4211343;28;20573;-79
2023/04/27 03:32:55;;;;;;;10.53;5.17;;;1.60;99.90;;;;;;4209405;28;21311;-77
2023/04/27 03:34:59;;;;;;;9.23;4.70;;;1.60;99.90;;;;;;4209680;28;20556;-78
2023/04/27 03:37:02;;;;;;;7.93;4.83;;;1.60;99.90;;;;;;4214299;28;20459;-79
2023/04/27 03:39:04;;;;;;;10.43;5.00;;;1.60;99.90;;;;;;4214357;28;20474;-78
2023/04/27 03:41:06;;;;;;;10.60;4.77;;;1.60;99.90;;;;;;4214399;28;20573;-78
2023/04/27 03:43:10;;;;;;;10.80;4.53;;;1.60;99.90;;;;;;4215671;28;20548;-77
2023/04/27 03:45:12;;;;;;;9.60;4.30;;;1.60;99.90;;;;;;4212834;28;20439;-78
2023/04/27 03:47:16;;;;;;;10.37;4.57;;;2.00;99.90;;;;;;4211456;28;20511;-77
2023/04/27 03:49:21;;;;;;;7.47;4.00;;;2.30;99.90;;;;;;4215199;28;20463;-77
2023/04/27 03:51:25;;;;;;;8.47;4.27;;;1.60;99.90;;;;;;4206529;28;20551;-78
2023/04/27 03:53:28;;;;;;;7.77;4.37;;;1.60;99.90;;;;;;4209414;28;20482;-77
2023/04/27 03:55:31;;;;;;;7.20;4.23;;;1.60;99.90;;;;;;4208440;28;20470;-77
2023/04/27 03:57:33;;;;;;;7.83;4.17;;;1.60;99.90;;;;;;4210834;28;20462;-77
2023/04/27 03:59:41;;;;;;;7.93;4.23;;;1.60;99.90;;;;;;4213157;28;20496;-77
2023/04/27 04:01:43;;;;;;;7.70;4.03;;;1.60;99.90;;;;;;4214725;28;20470;-76
2023/04/27 04:03:46;;;;;;;11.50;5.07;;;1.60;99.90;;;;;;4211174;28;20558;-77
2023/04/27 04:05:48;;;;;;;9.47;5.27;;;1.60;99.90;;;;;;4209907;28;20453;-77
2023/04/27 04:07:52;;;;;;;8.67;4.43;;;1.60;99.90;;;;;;4209125;28;20526;-76
2023/04/27 04:09:53;;;;;;;8.70;4.30;;;1.60;99.90;;;;;;4209871;28;20971;-77
2023/04/27 04:11:56;;;;;;;11.03;5.10;;;1.60;99.90;;;;;;4209655;28;20873;-77
2023/04/27 04:13:58;;;;;;;9.70;4.63;;;1.60;99.90;;;;;;4213636;28;20504;-76
2023/04/27 04:16:04;;;;;;;8.57;4.60;;;1.70;99.90;;;;;;4210020;28;20473;-77
2023/04/27 04:18:06;;;;;;;8.83;4.73;;;1.70;99.90;;;;;;4210391;28;20920;-77
2023/04/27 04:20:09;;;;;;;7.57;4.27;;;1.70;99.90;;;;;;4209084;28;20459;-77
2023/04/27 04:22:11;;;;;;;8.53;4.87;;;1.70;99.90;;;;;;4209992;28;20558;-82
2023/04/27 04:24:15;;;;;;;9.90;4.60;;;1.70;99.90;;;;;;4213587;28;20473;-82
2023/04/27 04:26:17;;;;;;;9.57;4.50;;;1.80;99.90;;;;;;4210216;28;21172;-79
2023/04/27 04:28:19;;;;;;;11.33;5.27;;;1.80;99.90;;;;;;4211640;28;21123;-79
2023/04/27 04:30:22;;;;;;;12.50;5.67;;;1.80;99.90;;;;;;4214602;28;21165;-83
2023/04/27 04:32:24;;;;;;;12.07;5.57;;;1.80;99.90;;;;;;4219208;28;20484;-84
2023/04/27 04:34:26;;;;;;;12.77;5.40;;;1.80;99.90;;;;;;4219487;28;20520;-82
2023/04/27 04:36:28;;;;;;;7.57;5.00;;;1.80;99.90;;;;;;4215657;28;20529;-84
2023/04/27 04:38:30;;;;;;;9.13;5.63;;;1.80;99.90;;;;;;4216900;28;20944;-82
2023/04/27 04:40:33;;;;;;;8.30;5.37;;;1.80;99.90;;;;;;4219026;28;20447;-82
2023/04/27 04:42:36;;;;;;;8.73;4.27;;;1.80;99.90;;;;;;4216447;28;20502;-82
2023/04/27 04:44:38;;;;;;;8.17;4.33;;;2.30;99.90;;;;;;4215540;28;20820;-82
2023/04/27 04:46:40;;;;;;;9.50;4.53;;;1.90;99.90;;;;;;4223342;28;20468;-82
2023/04/27 04:48:42;;;;;;;7.07;4.53;;;1.90;99.90;;;;;;4215678;28;20467;-80
2023/04/27 04:50:44;;;;;;;9.80;4.37;;;1.90;99.90;;;;;;4217515;28;20444;-82
2023/04/27 04:52:46;;;;;;;10.17;4.63;;;2.00;99.90;;;;;;4211610;28;20954;-84
2023/04/27 04:54:51;;;;;;;8.00;4.53;;;2.00;99.90;;;;;;4212729;28;20458;-84
2023/04/27 04:56:54;;;;;;;8.10;4.83;;;2.30;99.90;;;;;;4212586;28;20467;-82
2023/04/27 04:58:56;;;;;;;9.27;5.07;;;2.10;99.90;;;;;;4216089;28;20473;-82
2023/04/27 05:00:58;;;;;;;9.27;5.07;;;2.40;99.90;;;;;;4216194;28;20474;-82
2023/04/27 05:03:00;;;;;;;10.30;5.07;;;2.20;99.90;;;;;;4213461;28;20711;-82
2023/04/27 05:05:03;;;;;;;11.47;5.33;;;2.20;99.90;;;;;;4215648;28;21002;-81
2023/04/27 05:07:05;;;;;;;9.47;5.37;;;2.20;99.90;;;;;;4214292;28;20998;-81
2023/04/27 05:09:07;;;;;;;10.03;5.27;;;2.20;99.90;;;;;;4208067;28;20951;-76
2023/04/27 05:11:10;;;;;;;10.60;4.67;;;2.30;99.90;;;;;;4213819;28;20497;-81
2023/04/27 05:13:13;;;;;;;10.33;5.07;;;2.30;99.90;;;;;;4215814;28;20955;-76
2023/04/27 05:15:15;;;;;;;10.77;5.47;;;2.40;99.90;;;;;;4203838;28;21315;-79
2023/04/27 05:17:17;;;;;;;10.13;5.23;;;2.30;99.90;;;;;;4199158;28;20490;-77
2023/04/27 05:19:19;;;;;;;9.67;5.27;;;3.00;99.90;;;;;;4209586;28;20463;-77
2023/04/27 05:21:21;;;;;;;7.33;4.10;;;2.70;99.90;;;;;;4209667;28;20486;-79
2023/04/27 05:23:23;;;;;;;7.77;4.50;;;2.50;99.90;;;;;;4212703;28;20467;-78
2023/04/27 05:25:25;;;;;;;9.30;4.67;;;2.50;99.90;;;;;;4207685;28;20554;-78
2023/04/27 05:27:27;;;;;;;8.80;4.70;;;2.60;99.90;;;;;;4205239;28;21000;-78
2023/04/27 05:29:31;;;;;;;7.53;4.40;;;2.60;99.90;;;;;;4205860;28;20459;-79
2023/04/27 05:31:34;;;;;;;7.83;4.93;;;2.60;99.90;;;;;;4212079;28;20502;-78
2023/04/27 05:33:36;;;;;;;10.03;5.00;;;2.70;99.90;;;;;;4206071;28;20458;-77
2023/04/27 05:35:38;;;;;;;8.77;5.23;;;2.80;99.90;;;;;;4208425;28;20486;-80
2023/04/27 05:37:42;;;;;;;11.00;5.53;;;2.80;99.90;;;;;;4213498;28;20455;-77
2023/04/27 05:39:44;;;;;;;9.80;4.97;;;2.80;99.90;;;;;;4208067;28;20534;-76
2023/04/27 05:41:46;;;;;;;11.13;5.70;;;2.80;99.90;;;;;;4210708;28;20507;-77
2023/04/27 05:43:48;;;;;;;12.00;5.73;;;2.90;99.90;;;;;;4213472;28;20986;-77
2023/04/27 05:45:52;;;;;;;11.53;5.70;;;2.90;99.90;;;;;;4210680;28;21070;-77
2023/04/27 05:47:56;;;;;;;9.23;5.60;;;2.90;99.90;;;;;;4209523;28;20483;-77
2023/04/27 05:49:58;;;;;;;10.33;5.47;;;2.90;99.90;;;;;;4207220;28;21085;-77
2023/04/27 05:52:01;;;;;;;10.30;5.67;;;3.00;99.90;;;;;;4211509;28;20497;-78
2023/04/27 05:54:03;;;;;;;10.57;4.93;;;3.00;99.90;;;;;;4208435;28;20439;-78
2023/04/27 05:56:06;;;;;;;9.40;5.10;;;3.00;99.90;;;;;;4203579;28;20472;-77
2023/04/27 05:58:08;;;;;;;11.97;5.93;;;3.00;99.90;;;;;;4216303;28;20499;-81
2023/04/27 06:00:11;;;;;;;8.97;5.00;;;3.10;99.90;;;;;;4200573;28;20459;-78
2023/04/27 06:02:15;;;;;;;10.73;5.70;;;3.00;99.90;;;;;;4209439;28;20818;-77
2023/04/27 06:04:17;;;;;;;11.33;5.80;;;3.10;99.90;;;;;;4207828;28;20879;-76
2023/04/27 06:06:19;;;;;;;10.10;5.27;;;3.10;99.90;;;;;;4207346;28;20543;-79
2023/04/27 06:08:21;;;;;;;9.97;4.77;;;3.10;99.90;;;;;;4211881;28;20492;-78
2023/04/27 06:10:23;;;;;;;9.23;5.50;;;3.20;99.90;;;;;;4205242;28;20942;-79
2023/04/27 06:12:25;;;;;;;16.83;5.67;;;3.20;99.90;;;;;;4211912;28;20482;-79
2023/04/27 06:14:28;;;;;;;12.00;5.63;;;3.30;99.90;;;;;;4211451;28;20916;-78
2023/04/27 06:16:30;;;;;;;12.07;6.20;;;3.30;99.90;;;;;;4215944;28;20468;-78
2023/04/27 06:18:33;;;;;;;11.70;5.67;;;3.30;99.90;;;;;;4210862;28;20499;-77
2023/04/27 06:20:35;;;;;;;11.30;5.77;;;3.40;99.90;;;;;;4209553;28;20894;-77
2023/04/27 06:22:37;;;;;;;17.47;7.00;;;3.40;99.90;;;;;;4206267;28;20466;-79
2023/04/27 06:24:39;;;;;;;12.60;5.73;;;3.50;99.90;;;;;;4213705;28;20448;-79
2023/04/27 06:26:41;;;;;;;15.83;6.60;;;3.50;99.90;;;;;;4212571;28;20916;-80
2023/04/27 06:28:43;;;;;;;14.63;6.27;;;3.50;99.90;;;;;;4212418;28;20475;-78
2023/04/27 06:30:45;;;;;;;14.70;6.90;;;3.60;99.90;;;;;;4213224;28;20535;-80
2023/04/27 06:32:47;;;;;;;12.73;5.87;;;3.70;99.90;;;;;;4213258;28;20463;-81
2023/04/27 06:34:50;;;;;;;10.00;5.47;;;3.70;99.90;;;;;;4206499;28;20463;-81
2023/04/27 06:36:52;;;;;;;12.63;5.60;;;3.80;99.90;;;;;;4208986;28;20523;-80
2023/04/27 06:38:55;;;;;;;15.53;6.53;;;3.80;99.90;;;;;;4206654;28;20451;-80
2023/04/27 06:40:58;;;;;;;12.27;6.43;;;3.90;99.90;;;;;;4206287;28;20494;-81
2023/04/27 06:43:00;;;;;;;9.67;5.53;;;3.90;99.90;;;;;;4212013;28;20487;-79
2023/04/27 06:45:02;;;;;;;9.33;5.60;;;4.10;99.90;;;;;;4209256;28;20539;-79
2023/04/27 06:47:05;;;;;;;12.50;5.60;;;4.10;99.90;;;;;;4209304;28;20491;-80
2023/04/27 06:49:07;;;;;;;9.27;5.20;;;4.30;99.90;;;;;;4211173;28;20488;-80
2023/04/27 06:51:11;;;;;;;9.70;5.20;;;4.40;99.90;;;;;;4215066;28;20474;-80
2023/04/27 06:53:13;;;;;;;11.10;5.33;;;4.60;99.90;;;;;;4209595;28;20534;-80
2023/04/27 06:55:15;;;;;;;11.63;5.83;;;4.60;99.90;;;;;;4208209;28;20518;-80
2023/04/27 06:57:17;;;;;;;11.63;5.70;;;4.70;99.90;;;;;;4216162;28;20516;-80
2023/04/27 06:59:19;;;;;;;8.87;5.17;;;4.80;99.90;;;;;;4217215;28;20543;-81
2023/04/27 07:01:21;;;;;;;9.57;5.07;;;5.00;99.90;;;;;;4211660;28;20538;-80
2023/04/27 07:03:23;;;;;;;9.40;5.20;;;5.30;99.90;;;;;;4211157;28;20506;-80
2023/04/27 07:05:25;;;;;;;9.57;5.20;;;5.20;99.90;;;;;;4212381;28;20460;-80
2023/04/27 07:07:28;;;;;;;11.00;5.20;;;5.30;99.90;;;;;;4211587;28;20459;-79
2023/04/27 07:09:30;;;;;;;15.37;6.17;;;5.40;99.90;;;;;;4204212;28;20510;-80
2023/04/27 07:11:32;;;;;;;11.33;5.70;;;5.50;99.90;;;;;;4208547;28;20532;-79
2023/04/27 07:13:34;;;;;;;10.87;5.33;;;5.70;99.90;;;;;;4217291;28;20493;-80
2023/04/27 07:15:36;;;;;;;10.03;5.37;;;5.80;99.90;;;;;;4214635;28;20470;-80
2023/04/27 07:17:38;;;;;;;11.10;5.50;;;5.90;99.90;;;;;;4216183;28;20464;-80
2023/04/27 07:19:40;;;;;;;9.17;4.83;;;6.00;99.90;;;;;;4218600;28;20458;-80
2023/04/27 07:21:42;;;;;;;11.50;5.63;;;6.60;99.90;;;;;;4213273;28;20473;-81
2023/04/27 07:23:45;;;;;;;8.50;5.00;;;6.20;99.90;;;;;;4211177;28;20465;-79
2023/04/27 07:25:47;;;;;;;9.57;5.00;;;6.30;99.90;;;;;;4217295;28;20978;-81
2023/04/27 07:27:49;;;;;;;9.37;4.67;;;6.40;99.90;;;;;;4214238;28;20486;-80
2023/04/27 07:29:52;;;;;;;9.63;5.20;;;6.40;99.90;;;;;;4210208;28;20490;-79
2023/04/27 07:31:54;;;;;;;8.50;4.73;;;6.60;99.90;;;;;;4214230;28;20885;-79
2023/04/27 07:33:56;;;;;;;6.60;3.97;;;6.60;99.90;;;;;;4212227;28;20459;-81
2023/04/27 07:35:58;;;;;;;8.10;4.63;;;6.70;99.90;;;;;;4216698;28;21003;-80
2023/04/27 07:38:01;;;;;;;10.30;4.80;;;6.80;99.90;;;;;;4212825;28;20477;-80
2023/04/27 07:40:09;;;;;;;9.10;4.80;;;7.10;99.90;;;;;;4215077;28;20489;-80
2023/04/27 07:42:14;;;;;;;7.30;4.20;;;6.90;99.90;;;;;;4209015;28;20588;-81
2023/04/27 07:44:17;;;;;;;11.00;5.60;;;7.00;99.90;;;;;;4211977;28;20453;-79
2023/04/27 07:46:19;;;;;;;8.10;4.43;;;7.10;99.90;;;;;;4214980;28;20454;-81
2023/04/27 07:48:21;;;;;;;12.67;5.60;;;7.20;99.90;;;;;;4214974;28;20903;-81
2023/04/27 07:50:24;;;;;;;10.07;4.93;;;7.20;99.90;;;;;;4216272;28;20446;-80
2023/04/27 07:52:26;;;;;;;7.37;4.20;;;7.30;99.90;;;;;;4216468;28;20513;-81
2023/04/27 07:54:28;;;;;;;13.67;5.93;;;7.40;99.90;;;;;;4204203;28;20467;-80
2023/04/27 07:56:31;;;;;;;18.87;6.33;;;7.40;99.90;;;;;;4212883;28;21542;-79
2023/04/27 07:58:33;;;;;;;14.00;4.97;;;7.50;99.90;;;;;;4210395;28;20533;-80
2023/04/27 08:00:36;;;;;;;11.07;4.77;;;7.60;99.90;;;;;;4215564;28;20570;-80
2023/04/27 08:02:38;;;;;;;8.93;4.30;;;7.60;99.90;;;;;;4212052;28;20462;-81
2023/04/27 08:04:40;;;;;;;10.87;4.90;;;7.60;99.90;;;;;;4213578;28;20451;-79
2023/04/27 08:06:42;;;;;;;8.53;4.97;;;7.70;99.90;;;;;;4210223;28;20467;-79
2023/04/27 08:08:44;;;;;;;9.17;4.13;;;7.70;99.90;;;;;;4218123;28;21056;-80
2023/04/27 08:10:46;;;;;;;7.90;4.33;;;7.80;99.90;;;;;;4221229;28;20220;-80
2023/04/27 08:12:49;;;;;;;10.90;5.10;;;7.90;99.90;;;;;;4214320;28;20251;-81
2023/04/27 08:14:51;;;;;;;12.47;5.57;;;7.90;99.90;;;;;;4213623;28;20216;-80
2023/04/27 08:16:53;;;;;;;8.37;4.73;;;8.00;99.90;;;;;;4211729;28;20210;-81
2023/04/27 08:18:55;;;;;;;9.53;4.53;;;8.20;99.90;;;;;;4215570;28;20236;-80
2023/04/27 08:20:57;;;;;;;10.07;4.67;;;8.20;99.90;;;;;;4216021;28;20232;-80
2023/04/27 08:22:59;;;;;;;8.50;4.47;;;8.30;99.90;;;;;;4220137;28;20276;-80
2023/04/27 08:25:02;;;;;;;12.57;5.10;;;8.40;99.90;;;;;;4211724;28;20305;-81
2023/04/27 08:27:06;;;;;;;12.50;4.97;;;8.50;99.90;;;;;;4215199;28;20210;-81
2023/04/27 08:29:09;;;;;;;9.63;4.90;;;8.60;99.90;;;;;;4214025;28;20213;-81
2023/04/27 08:31:11;;;;;;;8.20;4.67;;;8.60;99.90;;;;;;4214666;28;20229;-81
2023/04/27 08:33:13;;;;;;;8.43;4.00;;;8.70;99.90;;;;;;4206993;28;20556;-80
2023/04/27 08:35:15;;;;;;;8.70;5.10;;;8.80;99.90;;;;;;4211728;28;20216;-81
2023/04/27 08:37:17;;;;;;;13.87;5.63;;;8.80;99.90;;;;;;4218531;28;20261;-80
2023/04/27 08:39:20;;;;;;;9.40;4.60;;;8.90;99.90;;;;;;4211660;28;20601;-80
2023/04/27 08:41:23;;;;;;;9.93;4.47;;;8.90;99.90;;;;;;4214397;28;20294;-80
2023/04/27 08:43:25;;;;;;;9.47;5.23;;;9.00;99.90;;;;;;4212219;28;20582;-80
2023/04/27 08:45:28;;;;;;;9.93;4.47;;;9.00;99.90;;;;;;4212920;28;20233;-81
2023/04/27 08:47:30;;;;;;;9.03;4.60;;;9.00;99.90;;;;;;4216566;28;20774;-81
2023/04/27 08:49:32;;;;;;;13.40;6.07;;;9.00;99.90;;;;;;4214495;28;20267;-80
2023/04/27 08:51:34;;;;;;;9.23;5.17;;;9.00;99.90;;;;;;4211270;28;20576;-80
2023/04/27 08:53:36;;;;;;;10.53;5.13;;;8.90;99.90;;;;;;4211101;28;20234;-80
2023/04/27 08:55:38;;;;;;;9.23;4.97;;;8.90;99.90;;;;;;4211247;28;20225;-80
2023/04/27 08:57:41;;;;;;;12.03;4.43;;;8.90;99.90;;;;;;4216720;28;20262;-81
2023/04/27 08:59:44;;;;;;;8.40;4.50;;;8.90;99.90;;;;;;4209615;28;20210;-80
2023/04/27 09:01:50;;;;;;;8.90;4.93;;;8.90;99.90;;;;;;4214980;28;20311;-80
2023/04/27 09:03:56;;;;;;;11.30;5.47;;;9.00;99.90;;;;;;4210643;28;20214;-80
2023/04/27 09:05:58;;;;;;;10.47;4.97;;;9.00;99.90;;;;;;4213636;28;20214;-78
2023/04/27 09:08:04;;;;;;;8.00;4.37;;;9.10;99.90;;;;;;4204677;28;20205;-81
2023/04/27 09:10:07;;;;;;;11.50;5.60;;;9.00;99.90;;;;;;4212378;28;20213;-77
2023/04/27 09:12:16;;;;;;;10.47;5.23;;;9.10;99.90;;;;;;4211526;28;20730;-79
2023/04/27 09:14:20;;;;;;;8.37;4.73;;;9.10;99.90;;;;;;4217433;28;20228;-79
2023/04/27 09:16:23;;;;;;;9.03;4.93;;;9.10;99.90;;;;;;4214375;28;20209;-80
2023/04/27 09:18:27;;;;;;;7.33;4.23;;;9.20;99.90;;;;;;4214055;28;20203;-80
2023/04/27 09:20:29;;;;;;;9.10;4.90;;;9.40;99.90;;;;;;4208516;28;20241;-80
2023/04/27 09:22:31;;;;;;;11.33;4.93;;;9.40;99.90;;;;;;4212317;28;20231;-81
2023/04/27 09:24:33;;;;;;;9.77;5.17;;;9.60;99.90;;;;;;4212268;28;20213;-80
2023/04/27 09:26:35;;;;;;;10.33;5.87;;;9.70;99.90;;;;;;4210389;28;20242;-80
2023/04/27 09:28:40;;;;;;;12.70;5.40;;;9.80;99.90;;;;;;4213829;28;20257;-80
2023/04/27 09:30:42;;;;;;;8.47;5.13;;;9.90;99.90;;;;;;4215356;28;20244;-80
2023/04/27 09:32:51;;;;;;;10.37;5.20;;;9.90;99.90;;;;;;4216989;28;20219;-81
2023/04/27 09:34:54;;;;;;;10.30;5.33;;;9.90;99.90;;;;;;4207169;28;20212;-80
2023/04/27 09:36:56;;;;;;;11.07;4.83;;;10.00;99.90;;;;;;4215857;28;20608;-81
2023/04/27 09:39:03;;;;;;;13.13;5.10;;;10.00;99.90;;;;;;4214134;28;20215;-81
2023/04/27 09:41:07;;;;;;;9.67;4.90;;;10.30;99.90;;;;;;4211856;28;20240;-80
2023/04/27 09:43:10;;;;;;;10.83;4.83;;;10.20;99.90;;;;;;4207996;28;20223;-80
2023/04/27 09:45:13;;;;;;;8.30;4.80;;;10.20;99.90;;;;;;4215236;28;20207;-81
2023/04/27 09:47:15;;;;;;;8.33;4.50;;;10.20;99.90;;;;;;4213561;28;20212;-80
2023/04/27 09:49:37;;;;;;;10.33;4.63;;;10.40;99.90;;;;;;4209218;28;20238;-80
2023/04/27 09:51:59;;;;;;;9.17;4.40;;;10.50;99.90;;;;;;4209095;28;20239;-79
2023/04/27 09:54:24;;;;;;;10.00;4.30;;;10.60;99.90;;;;;;4201275;28;20204;-79
2023/04/27 09:56:37;;;;;;;8.77;4.10;;;10.70;99.90;;;;;;4201464;28;20245;-83
2023/04/27 09:59:00;;;;;;;9.97;5.27;;;10.70;99.90;;;;;;4208398;28;20219;-85
2023/04/27 10:01:09;;;;;;;8.93;5.17;;;10.70;99.90;;;;;;4213950;28;20225;-82
2023/04/27 10:03:22;;;;;;;9.07;5.57;;;10.70;99.90;;;;;;4207557;28;20302;-80
2023/04/27 10:06:00;;;;;;;8.47;4.93;;;10.70;99.90;;;;;;4206414;28;20319;-76
2023/04/27 10:08:05;;;;;;;5.67;3.93;;;10.60;99.90;;;;;;4158809;28;20720;-76
2023/04/27 10:10:16;;;;;;;7.53;4.40;;;10.60;99.90;;;;;;4212250;28;20243;-78
2023/04/27 10:12:19;;;;;;;10.53;5.63;;;10.60;99.90;;;;;;4212119;28;20919;-78
2023/04/27 10:14:23;;;;;;;8.33;4.63;;;10.60;99.90;;;;;;4212660;28;20242;-77
2023/04/27 10:16:25;;;;;;;12.07;5.13;;;10.60;99.90;;;;;;4209932;28;20254;-78
2023/04/27 10:18:30;;;;;;;11.43;4.60;;;10.60;99.90;;;;;;4210298;28;20207;-80
2023/04/27 10:20:33;;;;;;;10.40;4.73;;;10.70;99.90;;;;;;4209922;28;20219;-80
2023/04/27 10:22:40;;;;;;;9.20;4.40;;;10.80;99.90;;;;;;4212681;28;20255;-80
2023/04/27 10:24:49;;;;;;;7.67;4.63;;;10.90;99.90;;;;;;4208156;28;20713;-79
2023/04/27 10:26:51;;;;;;;13.67;5.30;;;11.00;99.90;;;;;;4211777;28;20220;-80
2023/04/27 10:28:58;;;;;;;8.90;4.73;;;11.00;99.90;;;;;;4209400;28;20228;-80
2023/04/27 10:31:10;;;;;;;10.33;4.80;;;11.20;99.90;;;;;;4212444;28;20228;-79
2023/04/27 10:33:17;;;;;;;6.10;4.20;;;11.30;99.90;;;;;;4203561;28;20221;-80
2023/04/27 10:35:23;;;;;;;8.93;5.20;;;11.40;99.90;;;;;;4212941;28;20302;-80
2023/04/27 10:37:39;;;;;;;12.40;4.97;;;11.40;99.90;;;;;;4211795;28;20216;-80
2023/04/27 10:39:44;;;;;;;10.20;5.00;;;11.40;90.20;;;;;;4204700;28;20709;-79
2023/04/27 10:41:51;;;;;;;9.33;5.17;;;11.40;89.30;;;;;;4207652;28;20255;-80
2023/04/27 10:43:53;;;;;;;9.87;5.07;;;11.50;85.70;;;;;;4210801;28;20232;-80
2023/04/27 10:45:55;;;;;;;9.87;5.13;;;11.50;84.00;;;;;;4219226;28;20212;-80